Lattingtown, New York
Current Conditions -  °F | °C
As of 5:53 AM on Friday 28 Nov 2014 (Local Time) from KFRG Reporting Station
Clear Clear  
Wind Chill: 26°   Ceiling: Unl
Heat Index: 32°   Visibility: 10mi
Dew Point: 21°   Wind: 6mph
Humidity: 64%   Direction: 330°NNW
Pressure: 30.09"   Gusts: NA
Location:  40.8809°N, 73.5895°W
Report Text: KFRG 281053Z AUTO 33005KT 10SM CLR 00/M06 A3009 RMK AO2 SLP190 T00001061
Loading
Personal Weather Stations






























Interactive Weather Map New forecast layout! Learn more

10-Day Weather Forecast

Advertisements
Track Severe Weather on mobile